createdAt,value
2018-08-13T00:01:55.625Z,101172.55
2018-08-13T00:04:23.713Z,101171.20
2018-08-13T00:06:52.420Z,101170.88
2018-08-13T00:09:20.778Z,101166.98
2018-08-13T00:11:49.109Z,101167.16
2018-08-13T00:14:16.844Z,101168.61
2018-08-13T00:16:45.730Z,101165.73
2018-08-13T00:19:13.470Z,101169.70
2018-08-13T00:21:41.792Z,101169.56
2018-08-13T00:24:10.690Z,101169.41
2018-08-13T00:26:39.244Z,101163.23
2018-08-13T00:29:07.331Z,101166.75
2018-08-13T00:31:35.067Z,101162.91
2018-08-13T00:34:03.380Z,101160.89
2018-08-13T00:36:32.274Z,101170.42
2018-08-13T00:39:01.588Z,101155.69
2018-08-13T00:41:29.918Z,101145.55
2018-08-13T00:43:58.249Z,101145.99
2018-08-13T00:46:25.992Z,101140.93
2018-08-13T00:48:54.882Z,101138.37
2018-08-13T00:51:23.110Z,101135.95
2018-08-13T00:53:51.519Z,101142.11
2018-08-13T00:56:19.835Z,101144.34
2018-08-13T00:58:48.171Z,101145.00
2018-08-13T01:01:16.156Z,101142.73
2018-08-13T01:03:44.230Z,101146.38
2018-08-13T01:06:13.126Z,101136.41
2018-08-13T01:08:41.442Z,101144.67
2018-08-13T01:11:09.803Z,101145.28
2018-08-13T01:13:37.538Z,101140.43
2018-08-13T01:16:06.441Z,101145.61
2018-08-13T01:18:34.771Z,101143.86
2018-08-13T01:21:03.092Z,101136.02
2018-08-13T01:23:30.884Z,101140.83
2018-08-13T01:25:59.145Z,101142.91
2018-08-13T01:28:27.461Z,101139.29
2018-08-13T01:30:56.369Z,101142.43
2018-08-13T01:33:24.702Z,101146.55
2018-08-13T01:35:52.457Z,101148.59
2018-08-13T01:38:21.353Z,101138.33
2018-08-13T01:40:49.678Z,101134.73
2018-08-13T01:43:17.996Z,101139.23
2018-08-13T01:45:45.730Z,101142.60
2018-08-13T01:48:14.625Z,101132.15
2018-08-13T01:50:42.953Z,101127.20
2018-08-13T01:53:10.685Z,101130.27
2018-08-13T01:55:39.594Z,101125.84
2018-08-13T01:58:07.337Z,101121.97
2018-08-13T02:00:36.234Z,101119.48
2018-08-13T02:03:04.557Z,101127.42
2018-08-13T02:05:32.877Z,101121.31
2018-08-13T02:08:00.610Z,101113.10
2018-08-13T02:10:28.934Z,101105.30
2018-08-13T02:12:57.312Z,101110.51
2018-08-13T02:15:26.204Z,101108.31
2018-08-13T02:17:53.958Z,101109.70
2018-08-13T02:20:23.000Z,101113.01
2018-08-13T02:22:51.308Z,101112.25
2018-08-13T02:25:19.853Z,101116.42
2018-08-13T02:27:47.365Z,101112.95
2018-08-13T02:30:16.273Z,101113.45
2018-08-13T02:32:44.660Z,101110.78
2018-08-13T02:35:12.933Z,101103.14
2018-08-13T02:37:41.253Z,101111.49
2018-08-13T02:40:08.993Z,101114.23
2018-08-13T02:42:37.306Z,101116.83
2018-08-13T02:45:05.627Z,101112.75
2018-08-13T02:47:33.963Z,101117.80
2018-08-13T02:50:02.844Z,101122.94
2018-08-13T02:52:30.596Z,101113.48
2018-08-13T02:54:59.488Z,101104.87
2018-08-13T02:57:27.250Z,101102.58
2018-08-13T02:59:56.152Z,101104.08
2018-08-13T03:02:23.891Z,101107.09
2018-08-13T03:04:52.799Z,101106.39
2018-08-13T03:07:20.574Z,101102.36
2018-08-13T03:09:49.464Z,101100.16
2018-08-13T03:12:17.799Z,101098.97
2018-08-13T03:14:45.593Z,101096.05
2018-08-13T03:17:13.912Z,101092.76
2018-08-13T03:19:42.816Z,101088.89
2018-08-13T03:22:10.562Z,101087.53
2018-08-13T03:24:39.468Z,101086.92
2018-08-13T03:27:07.805Z,101090.69
2018-08-13T03:29:36.022Z,101092.09
2018-08-13T03:32:04.456Z,101085.42
2018-08-13T03:34:32.310Z,101086.91
2018-08-13T03:37:00.518Z,101085.75
2018-08-13T03:39:28.847Z,101091.33
2018-08-13T03:41:57.749Z,101087.76
2018-08-13T03:44:26.069Z,101081.91
2018-08-13T03:46:54.386Z,101091.84
2018-08-13T03:49:22.130Z,101091.53
2018-08-13T03:51:51.041Z,101078.73
2018-08-13T03:54:19.361Z,101061.11
2018-08-13T03:56:47.679Z,101063.91
2018-08-13T03:59:16.253Z,101075.63
2018-08-13T04:01:44.204Z,101072.94
2018-08-13T04:04:12.942Z,101073.44
2018-08-13T04:06:41.271Z,101073.23
2018-08-13T04:09:09.840Z,101079.11
2018-08-13T04:11:37.932Z,101071.66
2018-08-13T04:14:06.254Z,101070.90
2018-08-13T04:16:34.591Z,101070.26
2018-08-13T04:19:02.329Z,101076.31
2018-08-13T04:21:31.224Z,101076.02
2018-08-13T04:23:59.559Z,101078.00
2018-08-13T04:26:27.293Z,101079.95
2018-08-13T04:28:55.646Z,101076.66
2018-08-13T04:31:23.972Z,101066.68
2018-08-13T04:33:52.857Z,101059.77
2018-08-13T04:36:21.199Z,101068.03
2018-08-13T04:38:49.769Z,101069.62
2018-08-13T04:41:18.348Z,101070.42
2018-08-13T04:43:46.658Z,101069.45
2018-08-13T04:46:14.977Z,101066.07
2018-08-13T04:48:43.315Z,101065.59
2018-08-13T04:51:11.637Z,101062.42
2018-08-13T04:53:39.956Z,101063.12
2018-08-13T04:56:08.273Z,101063.33
2018-08-13T04:58:36.013Z,101069.12
2018-08-13T05:01:04.325Z,101064.77
2018-08-13T05:03:33.221Z,101066.28
2018-08-13T05:06:01.543Z,101072.22
2018-08-13T05:08:29.867Z,101071.47
2018-08-13T05:10:58.171Z,101066.19
2018-08-13T05:13:26.497Z,101067.45
2018-08-13T05:15:54.824Z,101073.98
2018-08-13T05:18:23.173Z,101071.92
2018-08-13T05:20:52.220Z,101065.95
2018-08-13T05:23:19.798Z,101061.72
2018-08-13T05:25:47.541Z,101063.34
2018-08-13T05:28:16.437Z,101069.56
2018-08-13T05:30:44.766Z,101072.77
2018-08-13T05:33:12.527Z,101074.16
2018-08-13T05:35:40.846Z,101065.30
2018-08-13T05:38:09.210Z,101071.16
2018-08-13T05:40:37.493Z,101071.14
2018-08-13T05:43:05.808Z,101071.05
2018-08-13T05:45:34.713Z,101071.76
2018-08-13T05:48:02.491Z,101072.81
2018-08-13T05:50:30.824Z,101069.77
2018-08-13T05:53:00.111Z,101068.39
2018-08-13T05:55:28.932Z,101071.67
2018-08-13T05:57:56.677Z,101070.22
2018-08-13T06:00:25.570Z,101067.97
2018-08-13T06:02:53.308Z,101064.16
2018-08-13T06:05:22.204Z,101065.36
2018-08-13T06:07:49.936Z,101062.72
2018-08-13T06:10:18.858Z,101062.29
2018-08-13T06:12:47.163Z,101063.08
2018-08-13T06:15:15.498Z,101060.30
2018-08-13T06:17:43.629Z,101059.59
2018-08-13T06:20:12.161Z,101059.45
2018-08-13T06:22:40.485Z,101054.37
2018-08-13T06:25:09.382Z,101051.52
2018-08-13T06:27:37.703Z,101051.88
2018-08-13T06:30:06.035Z,101051.48
2018-08-13T06:32:33.778Z,101051.27
2018-08-13T06:35:02.209Z,101049.39
2018-08-13T06:37:30.414Z,101047.45
2018-08-13T06:39:59.345Z,101042.42
2018-08-13T06:42:27.077Z,101042.02
2018-08-13T06:44:55.392Z,101039.77
2018-08-13T06:47:24.301Z,101042.22
2018-08-13T06:49:52.623Z,101041.53
2018-08-13T06:52:20.947Z,101041.64
2018-08-13T06:54:48.691Z,101040.70
2018-08-13T06:57:17.016Z,101037.74
2018-08-13T06:59:45.920Z,101037.30
2018-08-13T07:02:14.258Z,101039.28
2018-08-13T07:04:42.593Z,101037.67
2018-08-13T07:07:10.915Z,101039.94
2018-08-13T07:09:38.648Z,101043.46
2018-08-13T07:12:06.959Z,101049.17
2018-08-13T07:14:35.281Z,101053.81
2018-08-13T07:17:03.607Z,101050.12
2018-08-13T07:19:32.772Z,101053.38
2018-08-13T07:22:01.685Z,101052.14
2018-08-13T07:24:30.361Z,101051.02
2018-08-13T07:26:58.704Z,101051.84
2018-08-13T07:29:26.997Z,101052.59
2018-08-13T07:31:55.417Z,101049.52
2018-08-13T07:34:23.067Z,101053.69
2018-08-13T07:36:51.397Z,101059.33
2018-08-13T07:39:19.788Z,101063.45
2018-08-13T07:41:48.718Z,101060.15
2018-08-13T07:44:17.883Z,101053.67
2018-08-13T07:46:46.233Z,101049.73
2018-08-13T07:49:14.555Z,101050.27
2018-08-13T07:51:42.927Z,101052.34
2018-08-13T07:54:12.768Z,101058.89
2018-08-13T07:56:39.819Z,101057.97
2018-08-13T07:59:08.146Z,101053.34
2018-08-13T08:01:36.463Z,101052.00
2018-08-13T08:04:04.791Z,101053.16
2018-08-13T08:06:32.532Z,101047.77
2018-08-13T08:09:01.491Z,101048.78
2018-08-13T08:11:29.785Z,101048.58
2018-08-13T08:13:57.516Z,101042.15
2018-08-13T08:16:26.424Z,101042.09
2018-08-13T08:18:54.182Z,101036.19
2018-08-13T08:21:23.141Z,101037.47
2018-08-13T08:23:51.435Z,101037.53
2018-08-13T08:26:19.212Z,101027.58
2018-08-13T08:28:48.100Z,101032.41
2018-08-13T08:31:16.454Z,101030.41
2018-08-13T08:33:44.744Z,101031.57
2018-08-13T08:36:12.485Z,101026.97
2018-08-13T08:38:41.373Z,101028.10
2018-08-13T08:41:09.691Z,101032.97
2018-08-13T08:43:38.030Z,101033.91
2018-08-13T08:46:06.412Z,101034.10
2018-08-13T08:48:34.177Z,101040.09
2018-08-13T08:51:03.152Z,101045.98
2018-08-13T08:53:31.524Z,101039.38
2018-08-13T08:55:59.789Z,101041.05
2018-08-13T08:58:28.169Z,101032.64
2018-08-13T09:00:55.927Z,101029.56
2018-08-13T09:03:24.829Z,101034.91
2018-08-13T09:05:53.460Z,101030.31
2018-08-13T09:08:21.729Z,101033.53
2018-08-13T09:10:50.240Z,101037.52
2018-08-13T09:13:18.583Z,101040.51
2018-08-13T09:15:46.901Z,101027.43
2018-08-13T09:18:27.158Z,101029.08
2018-08-13T09:21:04.458Z,101027.39
2018-08-13T09:23:39.293Z,101020.86
2018-08-13T09:26:14.875Z,101012.90
2018-08-13T09:28:50.399Z,101008.89
2018-08-13T09:31:18.164Z,101020.23
2018-08-13T09:33:56.932Z,101022.42
2018-08-13T09:36:24.682Z,101026.31
2018-08-13T09:38:53.574Z,101022.27
2018-08-13T09:41:21.323Z,101020.14
2018-08-13T09:43:49.685Z,101018.53
2018-08-13T09:46:18.628Z,101021.23
2018-08-13T09:48:46.940Z,101023.42
2018-08-13T09:51:15.264Z,101021.41
2018-08-13T09:53:43.058Z,101023.13
2018-08-13T09:56:11.933Z,101021.81
2018-08-13T09:58:40.309Z,101019.63
2018-08-13T10:01:08.629Z,101019.38
2018-08-13T10:03:37.174Z,101025.95
2018-08-13T10:06:04.688Z,101019.81
2018-08-13T10:08:33.045Z,101018.38
2018-08-13T10:11:01.958Z,101014.82
2018-08-13T10:13:30.287Z,101014.95
2018-08-13T10:15:58.653Z,101018.73
2018-08-13T10:18:26.396Z,101017.13
2018-08-13T10:20:55.302Z,101015.91
2018-08-13T10:23:23.675Z,101017.13
2018-08-13T10:25:52.464Z,101019.51
2018-08-13T10:28:20.928Z,101016.63
2018-08-13T10:30:49.246Z,101016.56
2018-08-13T10:33:18.200Z,101012.44
2018-08-13T10:35:46.516Z,101007.23
2018-08-13T10:38:14.833Z,101005.58
2018-08-13T10:40:42.567Z,101010.82
2018-08-13T10:43:11.493Z,101012.56
2018-08-13T10:45:39.836Z,101016.00
2018-08-13T10:48:08.197Z,101013.58
2018-08-13T10:50:36.515Z,101011.23
2018-08-13T10:53:04.254Z,101012.95
2018-08-13T10:55:33.199Z,101015.73
2018-08-13T10:58:01.310Z,101016.22
2018-08-13T11:00:29.249Z,101010.18
2018-08-13T11:02:57.671Z,101009.28
2018-08-13T11:05:26.497Z,101005.31
2018-08-13T11:07:54.821Z,101003.27
2018-08-13T11:10:22.863Z,101001.73
2018-08-13T11:12:50.881Z,100999.87
2018-08-13T11:15:19.240Z,100999.67
2018-08-13T11:17:48.134Z,100996.68
2018-08-13T11:20:16.540Z,101000.19
2018-08-13T11:22:44.279Z,100995.55
2018-08-13T11:25:13.201Z,100995.89
2018-08-13T11:27:41.497Z,100992.98
2018-08-13T11:30:09.870Z,100989.81
2018-08-13T11:32:37.619Z,100987.90
2018-08-13T11:35:06.511Z,100986.71
2018-08-13T11:37:34.237Z,100989.55
2018-08-13T11:40:02.562Z,100996.48
2018-08-13T11:42:31.469Z,101000.70
2018-08-13T11:44:59.782Z,101003.26
2018-08-13T11:47:27.527Z,100997.03
2018-08-13T11:49:55.849Z,100993.05
2018-08-13T11:52:24.209Z,100993.98
2018-08-13T11:54:53.097Z,100996.44
2018-08-13T11:57:21.434Z,100992.17
2018-08-13T11:59:49.761Z,100990.45
2018-08-13T12:04:45.862Z,100986.13
2018-08-13T12:07:14.801Z,100990.80
2018-08-13T12:09:43.128Z,100989.00
2018-08-13T12:12:10.871Z,100990.19
2018-08-13T12:14:39.865Z,100984.00
2018-08-13T12:17:07.604Z,100984.75
2018-08-13T12:19:36.593Z,100981.31
2018-08-13T12:22:04.825Z,100981.86
2018-08-13T12:24:33.143Z,100979.79
2018-08-13T12:27:01.537Z,100976.78
2018-08-13T12:29:29.881Z,100979.75
2018-08-13T12:31:58.262Z,100975.80
2018-08-13T12:34:26.606Z,100972.34
2018-08-13T12:36:54.927Z,100972.41
2018-08-13T12:39:23.233Z,100970.18
2018-08-13T12:41:50.992Z,100974.00
2018-08-13T12:44:19.866Z,100970.17
2018-08-13T12:46:47.602Z,100968.61
2018-08-13T12:49:15.917Z,100966.00
2018-08-13T12:51:44.805Z,100966.71
2018-08-13T12:54:13.129Z,100960.50
2018-08-13T12:56:41.445Z,100959.84
2018-08-13T12:59:09.181Z,100961.53
2018-08-13T13:01:38.080Z,100958.25
2018-08-13T13:04:06.368Z,100957.22
2018-08-13T13:06:34.145Z,100953.58
2018-08-13T13:09:03.116Z,100945.37
2018-08-13T13:11:30.797Z,100945.81
2018-08-13T13:13:59.110Z,100935.80
2018-08-13T13:16:28.028Z,100938.34
2018-08-13T13:19:17.469Z,100943.64
2018-08-13T13:22:53.973Z,100942.13
2018-08-13T13:24:33.759Z,100943.73
2018-08-13T13:27:01.765Z,100943.44
2018-08-13T13:29:30.667Z,100950.06
2018-08-13T13:31:59.020Z,100946.74
2018-08-13T13:34:27.373Z,100949.95
2018-08-13T13:36:55.681Z,100945.27
2018-08-13T13:39:23.999Z,100947.05
2018-08-13T13:41:52.325Z,100946.44
2018-08-13T13:44:20.659Z,100942.58
2018-08-13T13:46:48.400Z,100941.70
2018-08-13T13:49:17.290Z,100949.97
2018-08-13T13:51:45.626Z,100950.98
2018-08-13T13:54:14.103Z,100953.13
2018-08-13T13:56:42.422Z,100953.20
2018-08-13T13:59:10.879Z,100952.95
2018-08-13T14:01:39.203Z,100951.31
2018-08-13T14:04:06.949Z,100951.94
2018-08-13T14:06:35.279Z,100946.63
2018-08-13T14:09:03.599Z,100943.41
2018-08-13T14:11:31.916Z,100943.67
2018-08-13T14:14:00.808Z,100949.28
2018-08-13T14:16:29.433Z,100946.10
2018-08-13T14:18:57.186Z,100941.34
2018-08-13T14:21:25.507Z,100938.30
2018-08-13T14:23:54.409Z,100936.38
2018-08-13T14:26:22.154Z,100932.37
2018-08-13T14:28:51.088Z,100929.07
2018-08-13T14:31:19.438Z,100924.94
2018-08-13T14:33:47.250Z,100928.25
2018-08-13T14:36:15.590Z,100928.72
2018-08-13T14:38:44.488Z,100935.12
2018-08-13T14:41:12.901Z,100939.36
2018-08-13T14:43:40.656Z,100944.03
2018-08-13T14:46:09.588Z,100948.60
2018-08-13T14:48:37.330Z,100949.44
2018-08-13T14:51:05.690Z,100950.31
2018-08-13T14:53:33.971Z,100948.52
2018-08-13T14:56:02.276Z,100952.12
2018-08-13T14:58:30.647Z,100954.69
2018-08-13T15:00:58.982Z,100952.55
2018-08-13T15:03:27.934Z,100951.64
2018-08-13T15:05:55.685Z,100948.20
2018-08-13T15:08:24.609Z,100945.95
2018-08-13T15:10:52.417Z,100939.85
2018-08-13T15:13:20.888Z,100938.86
2018-08-13T15:15:49.688Z,100943.61
2018-08-13T15:18:18.019Z,100940.94
2018-08-13T15:20:46.323Z,100941.69
2018-08-13T15:23:14.216Z,100936.77
2018-08-13T15:25:42.964Z,100930.22
2018-08-13T15:28:10.846Z,100925.04
2018-08-13T15:30:39.604Z,100927.73
2018-08-13T15:33:07.954Z,100920.95
2018-08-13T15:35:35.734Z,100924.52
2018-08-13T15:38:04.062Z,100917.63
2018-08-13T15:40:32.500Z,100913.00
2018-08-13T15:43:01.749Z,100909.23
2018-08-13T15:45:30.099Z,100914.72
2018-08-13T15:47:58.471Z,100909.44
2018-08-13T15:50:28.156Z,100916.56
2018-08-13T15:52:55.108Z,100909.42
2018-08-13T15:55:23.437Z,100900.50
2018-08-13T15:57:51.192Z,100898.00
2018-08-13T16:00:19.596Z,100897.67
2018-08-13T16:02:48.503Z,100897.19
2018-08-13T16:05:16.236Z,100896.83
2018-08-13T16:07:45.140Z,100899.23
2018-08-13T16:10:14.048Z,100896.45
2018-08-13T16:12:41.810Z,100901.25
2018-08-13T16:15:10.753Z,100895.71
2018-08-13T16:17:37.891Z,100899.75
2018-08-13T16:20:06.253Z,100896.41
2018-08-13T16:22:35.209Z,100897.66
2018-08-13T16:25:03.530Z,100899.04
2018-08-13T16:27:31.297Z,100899.49
2018-08-13T16:30:00.185Z,100901.27
2018-08-13T16:32:28.504Z,100893.72
2018-08-13T16:34:56.250Z,100892.34
2018-08-13T16:37:25.276Z,100890.33
2018-08-13T16:39:53.616Z,100890.56
2018-08-13T16:42:21.986Z,100888.37
2018-08-13T16:44:50.330Z,100891.37
2018-08-13T16:47:18.645Z,100888.39
2018-08-13T16:49:47.287Z,100884.86
2018-08-13T16:52:15.060Z,100886.36
2018-08-13T16:54:43.978Z,100882.52
2018-08-13T16:57:11.757Z,100887.43
2018-08-13T16:59:40.062Z,100888.80
2018-08-13T17:02:08.984Z,100893.97
2018-08-13T17:04:36.722Z,100891.95
2018-08-13T17:07:05.041Z,100891.68
2018-08-13T17:09:33.937Z,100889.73
2018-08-13T17:12:02.260Z,100886.66
2018-08-13T17:14:30.782Z,100881.94
2018-08-13T17:16:58.910Z,100882.41
2018-08-13T17:19:26.646Z,100886.86
2018-08-13T17:21:54.978Z,100883.70
2018-08-13T17:24:23.922Z,100883.31
2018-08-13T17:26:51.726Z,100887.91
2018-08-13T17:29:20.054Z,100881.13
2018-08-13T17:31:48.937Z,100880.17
2018-08-13T17:34:16.733Z,100879.55
2018-08-13T17:36:45.121Z,100876.38
2018-08-13T17:39:13.585Z,100874.91
2018-08-13T17:41:42.406Z,100875.34
2018-08-13T17:44:10.826Z,100875.49
2018-08-13T17:46:39.306Z,100876.50
2018-08-13T17:49:07.643Z,100871.53
2018-08-13T17:51:35.368Z,100870.31
2018-08-13T17:54:04.272Z,100873.40
2018-08-13T17:56:32.595Z,100869.10
2018-08-13T17:59:00.929Z,100867.41
2018-08-13T18:01:31.077Z,100868.23
2018-08-13T18:03:57.028Z,100876.53
2018-08-13T18:06:25.923Z,100881.57
2018-08-13T18:08:53.947Z,100886.88
2018-08-13T18:11:22.013Z,100888.73
2018-08-13T18:13:50.340Z,100890.03
2018-08-13T18:16:19.227Z,100893.77
2018-08-13T18:18:47.549Z,100886.71
2018-08-13T18:21:16.008Z,100887.99
2018-08-13T18:23:44.257Z,100886.19
2018-08-13T18:26:12.016Z,100889.84
2018-08-13T18:28:41.025Z,100884.78
2018-08-13T18:31:09.369Z,100883.23
2018-08-13T18:33:37.731Z,100882.16
2018-08-13T18:36:05.549Z,100875.35
2018-08-13T18:38:34.503Z,100867.84
2018-08-13T18:41:02.823Z,100871.13
2018-08-13T18:43:31.151Z,100871.47
2018-08-13T18:46:00.475Z,100868.06
2018-08-13T18:48:27.857Z,100867.22
2018-08-13T18:50:56.187Z,100863.50
2018-08-13T18:53:24.753Z,100873.16
2018-08-13T18:55:52.841Z,100871.43
2018-08-13T18:58:20.595Z,100876.69
2018-08-13T19:00:49.509Z,100880.09
2018-08-13T19:03:18.833Z,100880.73
2018-08-13T19:05:47.154Z,100881.89
2018-08-13T19:08:15.484Z,100884.58
2018-08-13T19:10:43.825Z,100888.65
2018-08-13T19:13:12.137Z,100881.98
2018-08-13T19:15:39.873Z,100881.98
2018-08-13T19:18:08.865Z,100880.89
2018-08-13T19:20:37.143Z,100877.63
2018-08-13T19:23:05.468Z,100873.36
2018-08-13T19:25:33.824Z,100878.46
2018-08-13T19:28:02.146Z,100880.03
2018-08-13T19:30:30.465Z,100881.48
2018-08-13T19:32:58.790Z,100880.83
2018-08-13T19:35:27.110Z,100877.32
2018-08-13T19:37:54.846Z,100878.69
2018-08-13T19:40:23.781Z,100877.22
2018-08-13T19:42:52.152Z,100875.09
2018-08-13T19:45:20.478Z,100871.70
2018-08-13T19:47:49.185Z,100863.56
2018-08-13T19:50:17.232Z,100865.55
2018-08-13T19:52:45.243Z,100863.18
2018-08-13T19:55:14.150Z,100858.23
2018-08-13T19:57:41.933Z,100854.06
2018-08-13T20:00:10.857Z,100851.26
2018-08-13T20:02:38.588Z,100847.14
2018-08-13T20:05:06.915Z,100845.64
2018-08-13T20:07:35.816Z,100847.18
2018-08-13T20:10:04.175Z,100850.19
2018-08-13T20:12:32.506Z,100857.42
2018-08-13T20:15:00.829Z,100854.32
2018-08-13T20:17:28.641Z,100856.47
2018-08-13T20:19:56.977Z,100851.53
2018-08-13T20:22:25.876Z,100841.86
2018-08-13T20:24:54.197Z,100838.23
2018-08-13T20:27:22.519Z,100834.09
2018-08-13T20:29:51.042Z,100830.93
2018-08-13T20:32:19.374Z,100829.49
2018-08-13T20:34:47.708Z,100827.59
2018-08-13T20:37:15.458Z,100828.55
2018-08-13T20:39:44.357Z,100831.30
2018-08-13T20:42:12.703Z,100832.98
2018-08-13T20:44:40.454Z,100831.84
2018-08-13T20:47:09.392Z,100827.20
2018-08-13T20:49:37.719Z,100833.17
2018-08-13T20:52:06.048Z,100835.88
2018-08-13T20:54:33.804Z,100837.80
2018-08-13T20:57:03.067Z,100833.34
2018-08-13T20:59:31.391Z,100832.22
2018-08-13T21:01:59.738Z,100830.05
2018-08-13T21:04:27.901Z,100829.86
2018-08-13T21:06:56.925Z,100830.49
2018-08-13T21:09:25.241Z,100834.47
2018-08-13T21:11:53.576Z,100832.23
2018-08-13T21:14:22.113Z,100824.16
2018-08-13T21:16:51.211Z,100825.13
2018-08-13T21:19:19.890Z,100824.05
2018-08-13T21:21:49.219Z,100821.95
2018-08-13T21:24:17.618Z,100819.34
2018-08-13T21:26:47.490Z,100829.05
2018-08-13T21:29:16.401Z,100826.13
2018-08-13T21:31:44.739Z,100823.09
2018-08-13T21:34:12.511Z,100828.08
2018-08-13T21:36:40.840Z,100823.64
2018-08-13T21:39:09.753Z,100821.89
2018-08-13T21:41:38.384Z,100818.41
2018-08-13T21:44:07.345Z,100815.14
2018-08-13T21:46:37.106Z,100815.46
2018-08-13T21:49:06.460Z,100813.55
2018-08-13T21:51:35.367Z,100811.76
2018-08-13T21:54:03.111Z,100805.84
2018-08-13T21:56:31.435Z,100807.80
2018-08-13T21:58:59.751Z,100803.19
2018-08-13T22:01:28.096Z,100809.61
2018-08-13T22:04:25.538Z,100809.61
2018-08-13T22:06:53.882Z,100811.49
2018-08-13T22:09:21.642Z,100819.48
2018-08-13T22:11:50.750Z,100818.00
2018-08-13T22:14:19.657Z,100810.63
2018-08-13T22:16:47.396Z,100810.98
2018-08-13T22:19:17.151Z,100816.18
2018-08-13T22:21:44.850Z,100811.69
2018-08-13T22:24:25.704Z,100811.00
2018-08-13T22:26:53.329Z,100809.14
2018-08-13T22:29:21.911Z,100811.51
2018-08-13T22:31:49.654Z,100812.81
2018-08-13T22:34:18.544Z,100812.41
2018-08-13T22:36:46.937Z,100811.98
2018-08-13T22:39:15.301Z,100808.73
2018-08-13T22:41:43.672Z,100813.57
2018-08-13T22:44:11.982Z,100820.36
2018-08-13T22:46:40.330Z,100815.23
2018-08-13T22:49:09.012Z,100816.86
2018-08-13T22:51:37.323Z,100811.00
2018-08-13T22:54:06.270Z,100803.23
2018-08-13T22:56:34.563Z,100798.05
2018-08-13T22:59:02.881Z,100803.17
2018-08-13T23:01:31.198Z,100799.08
2018-08-13T23:03:58.923Z,100795.03
2018-08-13T23:06:27.987Z,100789.83
2018-08-13T23:08:55.592Z,100788.19
2018-08-13T23:11:23.904Z,100791.36
2018-08-13T23:13:53.076Z,100787.60
2018-08-13T23:16:21.382Z,100788.41
2018-08-13T23:18:49.112Z,100788.47
2018-08-13T23:21:18.025Z,100788.19
2018-08-13T23:23:46.334Z,100781.38
2018-08-13T23:26:14.071Z,100777.19
2018-08-13T23:28:43.214Z,100775.02
2018-08-13T23:31:11.303Z,100777.59
2018-08-13T23:33:39.619Z,100779.61
2018-08-13T23:36:07.926Z,100776.30
2018-08-13T23:38:36.251Z,100775.80
2018-08-13T23:41:03.978Z,100778.33
2018-08-13T23:43:32.743Z,100771.76
2018-08-13T23:46:01.511Z,100775.19
2018-08-13T23:48:30.100Z,100778.94
2018-08-13T23:50:58.206Z,100777.70
2018-08-13T23:53:25.935Z,100778.46
2018-08-13T23:55:55.145Z,100778.80
2018-08-13T23:58:23.450Z,100773.41
